createdAt,value
2022-08-27T00:00:45.090Z,16.15
2022-08-27T00:03:12.470Z,14.77
2022-08-27T00:05:40.411Z,13.90
2022-08-27T00:08:08.590Z,13.90
2022-08-27T00:10:35.784Z,12.00
2022-08-27T00:13:02.917Z,13.43
2022-08-27T00:15:30.434Z,14.85
2022-08-27T00:17:57.581Z,14.02
2022-08-27T00:20:26.309Z,15.18
2022-08-27T00:22:54.684Z,15.65
2022-08-27T00:25:22.158Z,15.25
2022-08-27T00:27:49.324Z,15.38
2022-08-27T00:30:17.878Z,15.32
2022-08-27T00:32:45.214Z,15.02
2022-08-27T00:35:14.198Z,16.95
2022-08-27T00:37:41.379Z,19.70
2022-08-27T00:40:10.696Z,19.50
2022-08-27T00:42:38.186Z,20.17
2022-08-27T00:45:06.741Z,22.05
2022-08-27T00:47:44.357Z,21.42
2022-08-27T00:50:13.205Z,22.20
2022-08-27T00:52:49.291Z,21.20
2022-08-27T00:55:18.588Z,23.00
2022-08-27T00:57:46.766Z,24.52
2022-08-27T01:00:15.613Z,27.67
2022-08-27T01:02:43.547Z,29.55
2022-08-27T01:05:12.806Z,29.92
2022-08-27T01:07:41.109Z,28.92
2022-08-27T01:10:10.962Z,30.63
2022-08-27T01:12:38.362Z,30.23
2022-08-27T01:15:08.714Z,26.85
2022-08-27T01:17:39.730Z,30.55
2022-08-27T01:20:09.437Z,32.20
2022-08-27T01:22:42.830Z,33.25
2022-08-27T01:25:12.312Z,30.13
2022-08-27T01:27:40.333Z,35.05
2022-08-27T01:30:09.315Z,31.10
2022-08-27T01:32:37.291Z,29.98
2022-08-27T01:35:06.000Z,30.45
2022-08-27T01:37:34.847Z,31.73
2022-08-27T01:40:02.426Z,28.60
2022-08-27T01:42:34.386Z,29.95
2022-08-27T01:45:05.877Z,29.87
2022-08-27T01:47:33.385Z,31.77
2022-08-27T01:50:00.531Z,30.98
2022-08-27T01:52:28.743Z,33.28
2022-08-27T01:54:56.158Z,33.03
2022-08-27T01:57:26.012Z,36.28
2022-08-27T01:59:54.801Z,33.63
2022-08-27T02:02:22.552Z,36.03
2022-08-27T02:04:50.928Z,39.20
2022-08-27T02:07:18.103Z,42.45
2022-08-27T02:09:45.347Z,47.58
2022-08-27T02:12:12.485Z,41.97
2022-08-27T02:14:39.671Z,40.60
2022-08-27T02:17:06.929Z,47.35
2022-08-27T02:19:34.392Z,48.58
2022-08-27T02:22:01.529Z,45.08
2022-08-27T02:24:29.166Z,49.20
2022-08-27T02:26:56.754Z,47.28
2022-08-27T02:29:24.357Z,45.03
2022-08-27T02:31:51.517Z,48.15
2022-08-27T02:34:18.931Z,48.28
2022-08-27T02:36:46.696Z,49.17
2022-08-27T02:39:13.937Z,44.65
2022-08-27T02:41:41.106Z,52.22
2022-08-27T02:44:10.379Z,53.47
2022-08-27T02:46:39.319Z,47.45
2022-08-27T02:49:07.749Z,49.90
2022-08-27T02:51:34.911Z,51.97
2022-08-27T02:54:02.901Z,51.63
2022-08-27T02:56:30.486Z,49.60
2022-08-27T02:58:58.936Z,51.38
2022-08-27T03:01:26.366Z,48.70
2022-08-27T03:03:53.661Z,45.83
2022-08-27T03:06:20.957Z,44.20
2022-08-27T03:08:52.574Z,44.53
2022-08-27T03:11:22.445Z,44.88
2022-08-27T03:13:49.599Z,50.90
2022-08-27T03:16:16.852Z,44.70
2022-08-27T03:18:44.329Z,43.10
2022-08-27T03:21:16.578Z,42.97
2022-08-27T03:23:43.698Z,45.13
2022-08-27T03:26:11.837Z,47.22
2022-08-27T03:28:39.054Z,47.85
2022-08-27T03:31:07.431Z,47.15
2022-08-27T03:33:36.078Z,50.38
2022-08-27T03:36:03.299Z,45.42
2022-08-27T03:38:30.702Z,46.40
2022-08-27T03:40:57.978Z,48.42
2022-08-27T03:43:25.214Z,48.63
2022-08-27T03:46:01.020Z,46.88
2022-08-27T03:48:30.248Z,45.10
2022-08-27T03:50:57.389Z,47.70
2022-08-27T03:53:24.776Z,47.38
2022-08-27T03:55:51.929Z,47.08
2022-08-27T03:58:19.111Z,49.00
2022-08-27T04:00:46.536Z,47.65
2022-08-27T04:03:15.137Z,42.65
2022-08-27T04:05:45.193Z,47.45
2022-08-27T04:08:13.433Z,49.92
2022-08-27T04:10:42.034Z,47.45
2022-08-27T04:13:09.183Z,44.67
2022-08-27T04:15:40.704Z,47.25
2022-08-27T04:18:08.572Z,49.55
2022-08-27T04:20:36.383Z,49.47
2022-08-27T04:23:04.185Z,46.42
2022-08-27T04:25:31.454Z,44.65
2022-08-27T04:27:58.853Z,48.95
2022-08-27T04:30:26.024Z,48.30
2022-08-27T04:32:53.195Z,45.72
2022-08-27T04:35:20.518Z,48.05
2022-08-27T04:37:47.719Z,46.90
2022-08-27T04:40:14.905Z,48.80
2022-08-27T04:42:42.340Z,52.25
2022-08-27T04:45:09.893Z,53.97
2022-08-27T04:47:37.081Z,49.30
2022-08-27T04:50:04.293Z,52.88
2022-08-27T04:52:33.143Z,53.72
2022-08-27T04:55:00.473Z,51.80
2022-08-27T04:57:27.802Z,55.00
2022-08-27T04:59:56.896Z,54.05
2022-08-27T05:02:24.012Z,53.92
2022-08-27T05:04:51.181Z,55.13
2022-08-27T05:07:19.203Z,54.55
2022-08-27T05:09:46.339Z,54.08
2022-08-27T05:12:13.480Z,55.10
2022-08-27T05:14:40.722Z,54.55
2022-08-27T05:17:07.939Z,54.55
2022-08-27T05:19:35.097Z,49.67
2022-08-27T05:22:02.273Z,59.42
2022-08-27T05:24:29.405Z,51.85
2022-08-27T05:26:56.675Z,53.55
2022-08-27T05:29:24.231Z,53.17
2022-08-27T05:31:51.441Z,52.15
2022-08-27T05:34:21.145Z,51.95
2022-08-27T05:36:53.654Z,50.97
2022-08-27T05:39:21.229Z,47.85
2022-08-27T05:41:48.363Z,50.47
2022-08-27T05:44:40.700Z,53.10
2022-08-27T05:47:04.647Z,50.50
2022-08-27T05:49:31.822Z,51.85
2022-08-27T05:51:59.010Z,52.92
2022-08-27T05:54:26.113Z,54.20
2022-08-27T05:56:53.317Z,51.88
2022-08-27T05:59:38.880Z,46.15
2022-08-27T06:02:07.018Z,53.20
2022-08-27T06:04:34.652Z,51.33
2022-08-27T06:07:02.067Z,50.90
2022-08-27T06:09:31.049Z,52.40
2022-08-27T06:11:59.619Z,52.63
2022-08-27T06:14:27.039Z,51.42
2022-08-27T06:16:54.369Z,49.58
2022-08-27T06:19:21.785Z,51.63
2022-08-27T06:22:01.141Z,43.30
2022-08-27T06:24:41.415Z,45.60
2022-08-27T06:27:13.980Z,41.88
2022-08-27T06:29:41.567Z,41.35
2022-08-27T06:32:09.534Z,44.63
2022-08-27T06:34:37.218Z,44.88
2022-08-27T06:37:04.770Z,43.42
2022-08-27T06:39:32.778Z,44.45
2022-08-27T06:41:59.999Z,44.58
2022-08-27T06:44:27.134Z,41.05
2022-08-27T06:46:54.253Z,44.33
2022-08-27T06:49:21.389Z,40.58
2022-08-27T06:51:48.663Z,43.83
2022-08-27T06:54:16.763Z,44.17
2022-08-27T06:56:44.581Z,39.55
2022-08-27T06:59:12.822Z,45.35
2022-08-27T07:01:41.799Z,41.75
2022-08-27T07:04:10.329Z,41.47
2022-08-27T07:06:38.516Z,41.83
2022-08-27T07:09:06.758Z,43.22
2022-08-27T07:11:33.970Z,38.33
2022-08-27T07:14:01.219Z,43.45
2022-08-27T07:16:29.223Z,39.58
2022-08-27T07:19:01.835Z,39.72
2022-08-27T07:21:31.791Z,40.38
2022-08-27T07:24:03.557Z,37.50
2022-08-27T07:26:31.783Z,37.05
2022-08-27T07:28:59.122Z,43.17
2022-08-27T07:31:26.311Z,40.97
2022-08-27T07:33:53.457Z,39.67
2022-08-27T07:36:21.328Z,38.97
2022-08-27T07:38:56.594Z,42.05
2022-08-27T07:41:31.116Z,42.53
2022-08-27T07:44:18.029Z,38.38
2022-08-27T07:46:48.007Z,40.17
2022-08-27T07:49:15.933Z,38.55
2022-08-27T07:51:43.055Z,37.55
2022-08-27T07:54:10.161Z,34.53
2022-08-27T07:56:37.342Z,36.92
2022-08-27T07:59:04.523Z,36.22
2022-08-27T08:01:31.706Z,36.45
2022-08-27T08:03:59.009Z,36.20
2022-08-27T08:06:46.843Z,35.50
2022-08-27T08:09:14.642Z,36.53
2022-08-27T08:11:41.917Z,36.38
2022-08-27T08:14:09.126Z,33.85
2022-08-27T08:16:36.301Z,35.75
2022-08-27T08:19:03.553Z,34.92
2022-08-27T08:21:30.685Z,31.73
2022-08-27T08:23:57.895Z,37.65
2022-08-27T08:26:25.089Z,38.05
2022-08-27T08:28:52.278Z,35.95
2022-08-27T08:31:19.558Z,39.00
2022-08-27T08:33:48.660Z,38.35
2022-08-27T08:36:16.872Z,40.00
2022-08-27T08:38:44.904Z,36.95
2022-08-27T08:41:31.827Z,35.50
2022-08-27T08:44:05.314Z,36.03
2022-08-27T08:46:41.823Z,35.33
2022-08-27T08:49:29.421Z,36.83
2022-08-27T08:51:57.791Z,37.60
2022-08-27T08:54:26.802Z,33.92
2022-08-27T08:56:55.243Z,37.63
2022-08-27T08:59:37.072Z,36.92
2022-08-27T09:02:09.096Z,39.50
2022-08-27T09:04:38.577Z,36.55
2022-08-27T09:07:12.675Z,34.90
2022-08-27T09:09:49.173Z,34.28
2022-08-27T09:12:25.192Z,30.02
2022-08-27T09:14:57.085Z,33.72
2022-08-27T09:17:24.501Z,32.23
2022-08-27T09:19:52.879Z,29.67
2022-08-27T09:22:38.368Z,27.77
2022-08-27T09:25:17.897Z,29.15
2022-08-27T09:27:48.778Z,27.45
2022-08-27T09:30:20.816Z,25.23
2022-08-27T09:32:55.429Z,22.45
2022-08-27T09:35:23.621Z,21.85
2022-08-27T09:37:53.013Z,21.77
2022-08-27T09:40:26.387Z,22.58
2022-08-27T09:42:54.967Z,22.02
2022-08-27T09:45:22.102Z,23.38
2022-08-27T09:47:51.219Z,23.02
2022-08-27T09:50:20.234Z,22.55
2022-08-27T09:52:52.590Z,22.75
2022-08-27T09:55:40.739Z,20.05
2022-08-27T09:58:08.772Z,21.40
2022-08-27T10:00:37.943Z,23.17
2022-08-27T10:03:05.803Z,22.20
2022-08-27T10:05:54.244Z,20.70
2022-08-27T10:08:36.822Z,20.15
2022-08-27T10:11:06.026Z,20.73
2022-08-27T10:13:33.673Z,19.70
2022-08-27T10:16:00.781Z,19.15
2022-08-27T10:18:34.039Z,19.73
2022-08-27T10:21:05.394Z,18.23
2022-08-27T10:23:32.969Z,17.57
2022-08-27T10:26:15.703Z,17.35
2022-08-27T10:29:18.334Z,16.42
2022-08-27T10:31:52.811Z,15.43
2022-08-27T10:34:34.881Z,14.70
2022-08-27T10:37:07.428Z,14.38
2022-08-27T10:39:41.424Z,12.50
2022-08-27T10:42:27.131Z,11.50
2022-08-27T10:45:10.057Z,12.35
2022-08-27T10:50:07.099Z,13.18
2022-08-27T10:52:51.613Z,13.18
2022-08-27T10:55:26.856Z,13.32
2022-08-27T10:58:13.329Z,11.93
2022-08-27T11:00:40.593Z,12.88
2022-08-27T11:03:07.709Z,12.80
2022-08-27T11:05:37.716Z,10.75
2022-08-27T11:08:14.015Z,10.32
2022-08-27T11:10:45.201Z,10.70
2022-08-27T11:13:21.217Z,10.65
2022-08-27T11:15:50.220Z,10.43
2022-08-27T11:18:25.103Z,8.38
2022-08-27T11:20:58.404Z,7.90
2022-08-27T11:23:45.322Z,7.40
2022-08-27T11:26:13.171Z,8.07
2022-08-27T11:28:45.134Z,9.07
2022-08-27T11:31:12.481Z,8.88
2022-08-27T11:33:45.385Z,7.70
2022-08-27T11:36:39.812Z,7.90
2022-08-27T11:39:13.137Z,7.35
2022-08-27T11:41:47.186Z,7.20
2022-08-27T11:44:18.268Z,6.78
2022-08-27T11:46:45.475Z,8.13
2022-08-27T11:49:22.578Z,8.07
2022-08-27T11:51:56.634Z,7.15
2022-08-27T11:54:27.031Z,7.28
2022-08-27T11:56:54.382Z,7.60
2022-08-27T11:59:23.329Z,7.60
2022-08-27T12:01:52.566Z,7.45
2022-08-27T12:04:22.088Z,6.78
2022-08-27T12:06:54.469Z,7.22
2022-08-27T12:09:23.270Z,7.60
2022-08-27T12:11:56.941Z,7.00
2022-08-27T12:14:24.048Z,6.97
2022-08-27T12:17:10.863Z,8.25
2022-08-27T12:19:43.850Z,8.48
2022-08-27T12:22:27.650Z,10.10
2022-08-27T12:24:56.417Z,9.48
2022-08-27T12:27:28.360Z,8.85
2022-08-27T12:30:04.365Z,8.70
2022-08-27T12:32:34.393Z,6.72
2022-08-27T12:35:12.794Z,6.32
2022-08-27T12:37:49.271Z,5.07
2022-08-27T12:40:20.691Z,9.38
2022-08-27T12:42:52.141Z,6.68
2022-08-27T12:45:25.541Z,6.75
2022-08-27T12:47:54.232Z,6.57
2022-08-27T12:50:23.625Z,6.72
2022-08-27T12:53:03.569Z,6.97
2022-08-27T12:55:46.989Z,7.50
2022-08-27T12:58:20.895Z,8.63
2022-08-27T13:01:01.260Z,8.07
2022-08-27T13:03:45.870Z,8.48
2022-08-27T13:06:20.122Z,8.15
2022-08-27T13:08:49.312Z,7.60
2022-08-27T13:11:23.389Z,8.32
2022-08-27T13:13:51.974Z,8.43
2022-08-27T13:16:22.799Z,8.05
2022-08-27T13:18:50.337Z,9.68
2022-08-27T13:21:22.761Z,8.15
2022-08-27T13:23:54.569Z,8.20
2022-08-27T13:26:22.777Z,8.70
2022-08-27T13:28:50.019Z,9.77
2022-08-27T13:31:17.627Z,10.23
2022-08-27T13:33:45.123Z,10.63
2022-08-27T13:36:12.310Z,10.00
2022-08-27T13:38:49.318Z,9.68
2022-08-27T13:41:25.882Z,10.27
2022-08-27T13:43:58.528Z,10.48
2022-08-27T13:46:29.700Z,12.25
2022-08-27T13:48:58.635Z,11.68
2022-08-27T13:51:33.183Z,9.55
2022-08-27T13:54:13.424Z,11.52
2022-08-27T13:56:57.344Z,11.55
2022-08-27T13:59:26.564Z,11.70
2022-08-27T14:01:57.044Z,11.52
2022-08-27T14:04:26.144Z,11.35
2022-08-27T14:06:53.716Z,10.30
2022-08-27T14:09:23.814Z,10.77
2022-08-27T14:11:58.541Z,11.93
2022-08-27T14:14:25.836Z,11.98
2022-08-27T14:17:01.299Z,13.25
2022-08-27T14:19:33.164Z,13.40
2022-08-27T14:22:03.822Z,13.30
2022-08-27T14:24:30.976Z,12.20
2022-08-27T14:27:04.866Z,11.57
2022-08-27T14:29:32.005Z,11.40
2022-08-27T14:31:59.153Z,11.90
2022-08-27T14:34:26.307Z,11.90
2022-08-27T14:36:54.892Z,11.18
2022-08-27T14:39:26.599Z,12.07
2022-08-27T14:44:41.406Z,12.15
2022-08-27T14:47:10.186Z,11.80
2022-08-27T14:47:26.734Z,12.35
2022-08-27T14:49:39.139Z,12.07
2022-08-27T14:52:07.007Z,11.63
2022-08-27T14:54:34.433Z,12.70
2022-08-27T14:57:02.916Z,12.73
2022-08-27T14:59:30.935Z,13.02
2022-08-27T15:01:58.751Z,12.45
2022-08-27T15:04:27.355Z,13.30
2022-08-27T15:06:55.282Z,12.07
2022-08-27T15:09:22.982Z,11.65
2022-08-27T15:11:51.131Z,11.43
2022-08-27T15:14:37.899Z,11.23
2022-08-27T15:17:14.223Z,11.85
2022-08-27T15:19:54.187Z,12.18
2022-08-27T15:22:22.415Z,11.23
2022-08-27T15:24:52.829Z,12.00
2022-08-27T15:27:20.068Z,13.25
2022-08-27T15:29:49.506Z,12.93
2022-08-27T15:32:22.143Z,15.13
2022-08-27T15:34:52.432Z,12.95
2022-08-27T15:37:21.332Z,14.70
2022-08-27T15:39:48.562Z,14.82
2022-08-27T15:42:15.995Z,14.82
2022-08-27T15:44:45.823Z,14.40
2022-08-27T15:47:18.924Z,14.80
2022-08-27T15:49:46.676Z,14.27
2022-08-27T15:52:16.709Z,14.82
2022-08-27T15:54:44.899Z,14.63
2022-08-27T15:57:12.659Z,13.07
2022-08-27T15:59:39.899Z,13.70
2022-08-27T16:02:07.755Z,13.40
2022-08-27T16:04:34.926Z,14.68
2022-08-27T16:07:02.151Z,14.02
2022-08-27T16:09:29.382Z,13.60
2022-08-27T16:11:57.249Z,15.27
2022-08-27T16:14:24.382Z,14.32
2022-08-27T16:16:51.688Z,15.35
2022-08-27T16:19:19.841Z,15.27
2022-08-27T16:21:47.277Z,15.70
2022-08-27T16:24:14.566Z,17.42
2022-08-27T16:26:41.743Z,16.65
2022-08-27T16:29:09.550Z,17.83
2022-08-27T16:31:37.509Z,17.00
2022-08-27T16:34:16.054Z,18.17
2022-08-27T16:36:43.627Z,18.27
2022-08-27T16:39:10.853Z,17.48
2022-08-27T16:41:38.623Z,20.20
2022-08-27T16:44:06.814Z,20.48
2022-08-27T16:46:34.533Z,21.30
2022-08-27T16:49:20.237Z,20.20
2022-08-27T16:51:47.662Z,20.15
2022-08-27T16:54:16.586Z,18.55
2022-08-27T16:56:44.403Z,21.30
2022-08-27T16:59:13.533Z,19.77
2022-08-27T17:01:41.916Z,20.90
2022-08-27T17:04:16.398Z,19.05
2022-08-27T17:06:54.829Z,19.08
2022-08-27T17:09:23.366Z,23.23
2022-08-27T17:11:55.589Z,24.05
2022-08-27T17:14:22.749Z,22.33
2022-08-27T17:16:50.077Z,23.48
2022-08-27T17:19:18.732Z,25.70
2022-08-27T17:21:45.941Z,24.17
2022-08-27T17:24:13.532Z,23.88
2022-08-27T17:26:40.697Z,26.73
2022-08-27T17:29:07.849Z,26.55
2022-08-27T17:31:37.456Z,25.52
2022-08-27T17:34:06.399Z,27.17
2022-08-27T17:36:33.780Z,26.02
2022-08-27T17:39:02.935Z,28.33
2022-08-27T17:41:34.082Z,30.33
2022-08-27T17:44:03.569Z,31.20
2022-08-27T17:46:30.989Z,25.70
2022-08-27T17:48:59.540Z,22.83
2022-08-27T17:51:28.014Z,20.88
2022-08-27T17:54:00.495Z,20.70
2022-08-27T17:56:28.236Z,26.67
2022-08-27T17:58:55.645Z,29.27
2022-08-27T18:01:24.559Z,23.65
2022-08-27T18:03:56.419Z,22.92
2022-08-27T18:06:23.949Z,23.75
2022-08-27T18:08:51.104Z,23.65
2022-08-27T18:11:18.386Z,23.38
2022-08-27T18:13:53.128Z,30.10
2022-08-27T18:16:20.637Z,27.52
2022-08-27T18:18:48.250Z,28.92
2022-08-27T18:21:17.579Z,33.33
2022-08-27T18:23:52.434Z,34.72
2022-08-27T18:26:21.384Z,38.63
2022-08-27T18:28:49.055Z,39.08
2022-08-27T18:31:17.905Z,39.72
2022-08-27T18:33:45.109Z,41.33
2022-08-27T18:36:12.301Z,40.30
2022-08-27T18:38:39.503Z,41.05
2022-08-27T18:41:08.430Z,39.17
2022-08-27T18:43:36.175Z,39.30
2022-08-27T18:46:04.289Z,39.17
2022-08-27T18:48:31.658Z,40.33
2022-08-27T18:51:00.244Z,39.45
2022-08-27T18:53:29.347Z,41.05
2022-08-27T18:55:56.748Z,40.20
2022-08-27T18:58:24.001Z,41.03
2022-08-27T19:00:53.102Z,43.20
2022-08-27T19:03:28.189Z,42.78
2022-08-27T19:05:56.169Z,39.47
2022-08-27T19:08:24.010Z,39.78
2022-08-27T19:10:51.355Z,40.40
2022-08-27T19:13:18.711Z,38.83
2022-08-27T19:15:50.529Z,37.17
2022-08-27T19:18:18.332Z,38.37
2022-08-27T19:20:45.497Z,38.45
2022-08-27T19:23:12.672Z,39.80
2022-08-27T19:25:54.656Z,40.97
2022-08-27T19:28:31.075Z,43.55
2022-08-27T19:31:07.647Z,41.90
2022-08-27T19:33:43.553Z,42.95
2022-08-27T19:36:32.573Z,41.70
2022-08-27T19:39:05.607Z,41.17
2022-08-27T19:41:40.262Z,44.47
2022-08-27T19:44:26.687Z,45.75
2022-08-27T19:47:05.199Z,42.85
2022-08-27T19:49:54.088Z,41.60
2022-08-27T19:52:35.718Z,42.80
2022-08-27T19:55:15.219Z,43.15
2022-08-27T19:57:45.938Z,42.17
2022-08-27T20:00:16.968Z,41.58
2022-08-27T20:03:06.399Z,38.85
2022-08-27T20:05:37.364Z,41.08
2022-08-27T20:08:08.793Z,40.88
2022-08-27T20:10:47.567Z,38.80
2022-08-27T20:13:33.035Z,36.33
2022-08-27T20:16:07.273Z,34.05
2022-08-27T20:18:45.366Z,35.05
2022-08-27T20:21:27.673Z,33.80
2022-08-27T20:24:04.958Z,35.65
2022-08-27T20:26:48.144Z,34.97
2022-08-27T20:29:32.591Z,35.88
2022-08-27T20:32:10.847Z,33.58
2022-08-27T20:34:45.420Z,33.60
2022-08-27T20:37:43.254Z,32.55
2022-08-27T20:40:37.708Z,34.22
2022-08-27T20:43:29.113Z,34.80
2022-08-27T20:48:47.089Z,37.75
2022-08-27T20:54:11.923Z,35.20
2022-08-27T20:56:58.005Z,36.47
2022-08-27T20:59:51.273Z,33.55
2022-08-27T21:02:21.760Z,33.97
2022-08-27T21:04:48.973Z,32.83
2022-08-27T21:07:16.655Z,33.17
2022-08-27T21:09:55.611Z,30.80
2022-08-27T21:12:23.918Z,32.70
2022-08-27T21:14:55.800Z,32.28
2022-08-27T21:17:24.287Z,32.38
2022-08-27T21:19:51.574Z,32.15
2022-08-27T21:22:18.978Z,32.05
2022-08-27T21:24:48.929Z,31.20
2022-08-27T21:27:16.789Z,31.65
2022-08-27T21:29:44.898Z,31.98
2022-08-27T21:32:12.359Z,32.97
2022-08-27T21:34:39.694Z,32.13
2022-08-27T21:37:06.823Z,32.10
2022-08-27T21:39:34.434Z,33.42
2022-08-27T21:42:01.974Z,30.83
2022-08-27T21:44:29.699Z,31.95
2022-08-27T21:46:57.386Z,30.92
2022-08-27T21:49:24.653Z,31.42
2022-08-27T21:51:51.944Z,29.25
2022-08-27T21:54:19.078Z,27.63
2022-08-27T21:56:46.470Z,25.65
2022-08-27T21:59:13.630Z,25.73
2022-08-27T22:01:41.218Z,23.60
2022-08-27T22:04:08.415Z,25.23
2022-08-27T22:06:35.556Z,23.92
2022-08-27T22:09:02.912Z,24.52
2022-08-27T22:11:30.705Z,25.38
2022-08-27T22:14:01.204Z,23.77
2022-08-27T22:16:31.448Z,23.25
2022-08-27T22:18:58.622Z,22.25
2022-08-27T22:21:25.859Z,22.73
2022-08-27T22:23:53.110Z,24.60
2022-08-27T22:26:21.206Z,26.30
2022-08-27T22:28:48.506Z,24.92
2022-08-27T22:31:15.802Z,24.63
2022-08-27T22:33:43.164Z,25.67
2022-08-27T22:36:10.402Z,25.30
2022-08-27T22:38:37.780Z,26.20
2022-08-27T22:41:05.697Z,25.88
2022-08-27T22:43:32.849Z,26.13
2022-08-27T22:46:00.031Z,26.00
2022-08-27T22:48:27.348Z,23.45
2022-08-27T22:50:54.477Z,23.73
2022-08-27T22:53:21.654Z,25.23
2022-08-27T22:55:50.314Z,25.27
2022-08-27T22:58:17.910Z,25.02
2022-08-27T23:00:50.838Z,26.92
2022-08-27T23:03:20.219Z,25.23
2022-08-27T23:05:47.647Z,25.42
2022-08-27T23:08:15.463Z,26.48
2022-08-27T23:10:43.242Z,27.88
2022-08-27T23:13:11.093Z,27.73
2022-08-27T23:15:38.675Z,26.98
2022-08-27T23:18:06.121Z,25.38
2022-08-27T23:20:33.965Z,26.33
2022-08-27T23:23:01.101Z,25.13
2022-08-27T23:25:48.529Z,25.80
2022-08-27T23:28:16.210Z,27.58
2022-08-27T23:30:44.335Z,29.73
2022-08-27T23:33:12.038Z,26.88
2022-08-27T23:35:39.588Z,26.75
2022-08-27T23:38:07.126Z,26.63
2022-08-27T23:40:34.346Z,27.08
2022-08-27T23:43:01.642Z,27.50
2022-08-27T23:45:28.912Z,27.58
2022-08-27T23:47:56.034Z,28.20
2022-08-27T23:50:31.572Z,28.45
2022-08-27T23:53:01.686Z,29.30
2022-08-27T23:55:28.944Z,30.25
2022-08-27T23:57:57.710Z,30.00
